Time;durP1;ratioP1;P1;durP2;ratioP2;P2;SDS_P1;SDS_P2;PMS_P1;PMS_P2;Temp;Humidity;BMP_temperature;BMP_pressure;BME280_temperature;BME280_humidity;BME280_pressure;Samples;Min_cycle;Max_cycle;Signal;HPM_P1;HPM_P2
2021/01/26 00:01:27;;;;;;;22.70;13.37;;;0.80;99.90;;;;;;5083457;28;20488;-73
2021/01/26 00:03:55;;;;;;;23.20;14.30;;;0.90;99.90;;;;;;5086663;28;20454;-74
2021/01/26 00:06:22;;;;;;;24.60;12.47;;;0.90;99.90;;;;;;5101743;28;20458;-73
2021/01/26 00:08:51;;;;;;;21.73;14.30;;;0.90;99.90;;;;;;5086183;28;20456;-73
2021/01/26 00:11:18;;;;;;;20.47;13.70;;;0.90;99.90;;;;;;5085207;28;20461;-73
2021/01/26 00:13:45;;;;;;;17.20;12.20;;;0.90;99.90;;;;;;5086017;28;20474;-73
2021/01/26 00:16:13;;;;;;;18.90;11.80;;;0.80;99.90;;;;;;5085380;28;20948;-73
2021/01/26 00:18:44;;;;;;;16.10;11.70;;;0.70;99.90;;;;;;5085469;28;20539;-73
2021/01/26 00:21:11;;;;;;;20.60;12.97;;;0.60;99.90;;;;;;5084430;28;20523;-73
2021/01/26 00:23:39;;;;;;;18.03;12.80;;;0.50;99.90;;;;;;5086083;28;21074;-73
2021/01/26 00:26:08;;;;;;;17.87;12.70;;;0.60;99.90;;;;;;5085911;28;20460;-73
2021/01/26 00:28:36;;;;;;;20.90;11.23;;;0.50;99.90;;;;;;5086421;28;20447;-72
2021/01/26 00:31:04;;;;;;;27.73;11.90;;;0.40;99.90;;;;;;5085043;28;20483;-73
2021/01/26 00:33:31;;;;;;;18.83;12.97;;;0.40;99.90;;;;;;5086184;28;20971;-73
2021/01/26 00:36:05;;;;;;;21.47;12.77;;;0.40;99.90;;;;;;5086580;28;20461;-73
2021/01/26 00:38:34;;;;;;;19.87;12.90;;;0.50;99.90;;;;;;5085054;28;20561;-73
2021/01/26 00:41:01;;;;;;;17.20;11.57;;;0.50;99.90;;;;;;5086130;28;20518;-74
2021/01/26 00:43:29;;;;;;;17.30;10.27;;;0.50;99.90;;;;;;5085313;28;20493;-73
2021/01/26 00:45:56;;;;;;;16.40;12.90;;;0.50;99.90;;;;;;5087020;28;20907;-73
2021/01/26 00:48:24;;;;;;;15.10;10.57;;;0.50;99.90;;;;;;5105000;28;20486;-73
2021/01/26 00:50:51;;;;;;;13.53;9.80;;;0.50;99.90;;;;;;5106766;28;20578;-73
2021/01/26 00:53:20;;;;;;;14.33;10.80;;;0.50;99.90;;;;;;5089522;28;20472;-73
2021/01/26 00:56:10;;;;;;;13.20;8.90;;;0.50;99.90;;;;;;5115304;28;20547;-73
2021/01/26 00:58:41;;;;;;;16.40;9.60;;;0.50;99.90;;;;;;5090815;28;20991;-72
2021/01/26 01:01:12;;;;;;;14.53;10.63;;;0.60;99.90;;;;;;5117982;28;20482;-73
2021/01/26 01:03:42;;;;;;;11.00;9.23;;;0.50;99.90;;;;;;5116266;28;20490;-73
2021/01/26 01:06:09;;;;;;;11.17;9.80;;;0.60;99.90;;;;;;5106571;28;20463;-73
2021/01/26 01:08:37;;;;;;;11.00;9.37;;;0.50;99.90;;;;;;5071058;28;20509;-73
2021/01/26 01:11:04;;;;;;;13.27;8.67;;;0.50;99.90;;;;;;5087549;28;20517;-73
2021/01/26 01:13:32;;;;;;;14.83;9.37;;;0.50;99.90;;;;;;5105173;28;20471;-73
2021/01/26 01:16:02;;;;;;;10.30;7.70;;;0.60;99.90;;;;;;5096762;28;20518;-73
2021/01/26 01:18:48;;;;;;;12.80;8.20;;;0.60;99.90;;;;;;5085802;28;20770;-73
2021/01/26 01:21:19;;;;;;;13.03;8.90;;;0.60;99.90;;;;;;5086099;28;20491;-72
2021/01/26 01:23:48;;;;;;;11.30;8.33;;;0.50;99.90;;;;;;5084317;28;20460;-72
2021/01/26 01:26:16;;;;;;;13.90;9.00;;;0.50;99.90;;;;;;5086798;28;20479;-72
2021/01/26 01:28:43;;;;;;;11.60;8.50;;;0.50;99.90;;;;;;5084615;28;20456;-72
2021/01/26 01:31:11;;;;;;;13.63;8.67;;;0.50;99.90;;;;;;5084396;28;20498;-73
2021/01/26 01:33:39;;;;;;;14.27;8.60;;;0.50;99.90;;;;;;5085816;28;20468;-72
2021/01/26 01:36:08;;;;;;;10.20;6.30;;;0.50;99.90;;;;;;5068693;28;20476;-72
2021/01/26 01:38:36;;;;;;;14.17;9.03;;;0.50;99.90;;;;;;5086237;28;20448;-72
2021/01/26 01:41:04;;;;;;;10.03;7.37;;;0.50;99.90;;;;;;5088658;28;20471;-74
2021/01/26 01:43:31;;;;;;;9.37;7.27;;;0.40;99.90;;;;;;5088053;28;20556;-73
2021/01/26 01:45:59;;;;;;;7.43;6.40;;;0.30;99.90;;;;;;5086595;28;20817;-73
2021/01/26 01:48:34;;;;;;;10.87;7.30;;;0.20;99.90;;;;;;5088858;28;20457;-73
2021/01/26 01:51:05;;;;;;;10.57;7.07;;;0.10;99.90;;;;;;5103274;28;20468;-74
2021/01/26 01:53:39;;;;;;;8.90;6.17;;;-0.10;99.90;;;;;;5091166;28;20935;-73
2021/01/26 01:56:09;;;;;;;10.40;6.17;;;-0.10;99.90;;;;;;5088752;28;20464;-73
2021/01/26 01:58:41;;;;;;;7.20;5.43;;;-0.10;99.90;;;;;;5090529;28;20548;-73
2021/01/26 02:01:11;;;;;;;8.23;5.80;;;-0.10;99.90;;;;;;5089159;28;20477;-73
2021/01/26 02:03:44;;;;;;;10.77;6.00;;;0.00;99.90;;;;;;5088817;28;20529;-73
2021/01/26 02:06:12;;;;;;;7.27;5.70;;;0.10;99.90;;;;;;5089796;28;20473;-72
2021/01/26 02:08:47;;;;;;;8.43;5.83;;;0.20;99.90;;;;;;5088031;28;20453;-73
2021/01/26 02:11:15;;;;;;;6.73;5.37;;;0.20;99.90;;;;;;5087148;28;20471;-72
2021/01/26 02:13:43;;;;;;;8.37;7.47;;;0.30;99.90;;;;;;5088085;28;20480;-72
2021/01/26 02:16:25;;;;;;;7.87;6.20;;;0.30;99.90;;;;;;5087923;28;20530;-73
2021/01/26 02:22:51;;;;;;;10.10;6.67;;;0.30;99.90;;;;;;5089270;28;20966;-72
2021/01/26 02:26:03;;;;;;;10.70;6.33;;;0.30;99.90;;;;;;5089056;28;20547;-73
2021/01/26 02:28:59;;;;;;;7.73;6.93;;;0.30;99.90;;;;;;5089003;28;20456;-73
2021/01/26 02:32:10;;;;;;;18.40;7.70;;;0.20;99.90;;;;;;5090274;28;20545;-72
2021/01/26 02:35:16;;;;;;;8.40;6.27;;;0.10;99.90;;;;;;5050106;28;20465;-73
2021/01/26 02:38:36;;;;;;;12.50;5.70;;;-0.10;99.90;;;;;;5113286;28;20496;-73
2021/01/26 02:41:12;;;;;;;9.90;5.70;;;-0.20;99.90;;;;;;5111795;28;20863;-73
2021/01/26 02:43:53;;;;;;;9.13;7.47;;;-0.30;99.90;;;;;;5090688;28;20508;-73
2021/01/26 02:46:35;;;;;;;7.33;6.47;;;-0.20;99.90;;;;;;5088928;28;20487;-72
2021/01/26 02:49:08;;;;;;;8.30;6.50;;;-0.30;99.90;;;;;;5107758;28;20483;-72
2021/01/26 02:51:48;;;;;;;8.43;6.80;;;-0.30;99.90;;;;;;5090696;28;20480;-73
2021/01/26 02:54:23;;;;;;;8.50;7.67;;;-0.40;99.90;;;;;;5107633;28;20463;-72
2021/01/26 02:56:59;;;;;;;8.80;6.97;;;-0.40;99.90;;;;;;5107991;28;20467;-73
2021/01/26 02:59:54;;;;;;;8.63;6.40;;;-0.50;99.90;;;;;;5090273;28;20831;-73
2021/01/26 03:02:30;;;;;;;12.20;7.77;;;-0.50;99.90;;;;;;5087346;28;21129;-72
2021/01/26 03:05:03;;;;;;;12.17;7.63;;;-0.50;99.90;;;;;;5086343;28;20472;-73
2021/01/26 03:07:50;;;;;;;10.03;7.73;;;-0.60;99.90;;;;;;5070331;28;20464;-73
2021/01/26 03:10:27;;;;;;;9.93;7.83;;;-0.60;99.90;;;;;;5088383;28;20471;-72
2021/01/26 03:13:02;;;;;;;16.63;7.10;;;-0.60;99.90;;;;;;5086435;28;20492;-73
2021/01/26 03:15:35;;;;;;;11.00;7.63;;;-0.80;99.90;;;;;;5087460;28;20923;-73
2021/01/26 03:18:09;;;;;;;14.90;9.00;;;-0.80;99.90;;;;;;5093755;28;20481;-73
2021/01/26 03:20:40;;;;;;;11.90;9.10;;;-0.90;99.90;;;;;;5096631;28;20463;-73
2021/01/26 03:23:13;;;;;;;13.80;9.27;;;-1.00;99.90;;;;;;5096723;28;20480;-72
2021/01/26 03:25:45;;;;;;;14.13;9.73;;;-1.00;99.90;;;;;;5095407;28;20471;-73
2021/01/26 03:28:17;;;;;;;12.07;9.00;;;-1.10;99.90;;;;;;5094574;28;20449;-72
2021/01/26 03:30:49;;;;;;;11.50;7.97;;;-1.10;99.90;;;;;;5094665;28;20482;-73
2021/01/26 03:33:19;;;;;;;11.67;9.70;;;-1.10;99.90;;;;;;5096146;28;20457;-73
2021/01/26 03:35:47;;;;;;;13.00;8.83;;;-1.20;99.90;;;;;;5096967;28;20457;-74
2021/01/26 03:38:19;;;;;;;12.23;8.70;;;-1.30;99.90;;;;;;5086449;28;20551;-74
2021/01/26 03:40:50;;;;;;;13.03;7.93;;;-1.40;99.90;;;;;;5087245;28;20452;-73
2021/01/26 03:43:20;;;;;;;10.33;7.50;;;-1.30;99.90;;;;;;5087153;28;21019;-73
2021/01/26 03:45:50;;;;;;;15.40;9.20;;;-1.30;99.90;;;;;;5085984;28;20571;-73
2021/01/26 03:48:31;;;;;;;12.23;8.53;;;-1.40;99.90;;;;;;5102808;28;20849;-73
2021/01/26 03:51:06;;;;;;;12.33;8.37;;;-1.40;99.90;;;;;;5086780;28;20482;-72
2021/01/26 03:54:05;;;;;;;14.73;8.80;;;-1.40;99.90;;;;;;5086734;28;20458;-73
2021/01/26 03:56:49;;;;;;;14.80;9.20;;;-1.40;99.90;;;;;;5084949;28;20475;-73
2021/01/26 03:59:22;;;;;;;12.37;8.43;;;-1.30;99.90;;;;;;5085421;28;20464;-74
2021/01/26 04:01:58;;;;;;;13.27;9.43;;;-1.30;99.90;;;;;;5085711;28;20483;-73
2021/01/26 04:04:36;;;;;;;14.97;10.57;;;-1.30;99.90;;;;;;5085905;28;20547;-72
2021/01/26 04:07:11;;;;;;;15.17;10.97;;;-1.40;99.90;;;;;;5069738;28;20460;-73
2021/01/26 04:09:51;;;;;;;19.83;11.53;;;-1.40;99.90;;;;;;5085763;28;20448;-73
2021/01/26 04:12:22;;;;;;;17.43;10.63;;;-1.30;99.90;;;;;;5086370;28;20500;-73
2021/01/26 04:14:56;;;;;;;18.47;12.10;;;-1.10;99.90;;;;;;5068674;28;20452;-73
2021/01/26 04:17:27;;;;;;;17.10;10.90;;;-1.00;99.90;;;;;;5086754;28;20484;-72
2021/01/26 04:19:58;;;;;;;17.87;12.13;;;-1.00;99.90;;;;;;5087172;28;20464;-73
2021/01/26 04:22:26;;;;;;;18.80;12.73;;;-0.90;99.90;;;;;;5087491;28;20480;-72
2021/01/26 04:24:53;;;;;;;17.97;12.37;;;-0.80;99.90;;;;;;5088101;28;20861;-73
2021/01/26 04:28:13;;;;;;;21.70;13.00;;;-0.60;99.90;;;;;;5088600;28;20468;-72
2021/01/26 04:30:42;;;;;;;22.53;13.93;;;-0.60;99.90;;;;;;5099074;28;20474;-73
2021/01/26 04:33:12;;;;;;;19.53;12.40;;;-0.60;99.90;;;;;;5092614;28;20476;-72
2021/01/26 04:35:39;;;;;;;20.70;12.93;;;-0.50;99.90;;;;;;5090056;28;20524;-71
2021/01/26 04:38:07;;;;;;;18.00;12.40;;;-0.40;99.90;;;;;;5093042;28;20531;-72
2021/01/26 04:40:36;;;;;;;18.60;11.80;;;-0.40;99.90;;;;;;5082082;28;20451;-72
2021/01/26 04:43:11;;;;;;;19.33;12.30;;;-0.30;99.90;;;;;;5106046;28;20510;-72
2021/01/26 04:45:51;;;;;;;19.00;13.60;;;-0.30;99.90;;;;;;5105577;28;20580;-72
2021/01/26 04:48:27;;;;;;;17.83;11.67;;;-0.20;99.90;;;;;;5106370;28;20472;-72
2021/01/26 04:50:57;;;;;;;17.47;11.70;;;-0.20;99.90;;;;;;5105867;28;20498;-72
2021/01/26 04:53:54;;;;;;;18.57;12.53;;;-0.20;99.90;;;;;;5104695;28;20498;-72
2021/01/26 04:56:56;;;;;;;18.70;12.10;;;-0.10;99.90;;;;;;5106249;28;20524;-73
2021/01/26 04:59:43;;;;;;;17.77;11.10;;;-0.10;99.90;;;;;;5108176;28;20648;-73
2021/01/26 05:02:33;;;;;;;21.73;11.30;;;-0.10;99.90;;;;;;5105350;28;20495;-72
2021/01/26 05:05:04;;;;;;;18.40;12.50;;;0.00;99.90;;;;;;5100767;28;20531;-72
2021/01/26 05:07:35;;;;;;;16.27;11.23;;;0.00;99.90;;;;;;5099712;28;20464;-72
2021/01/26 05:10:07;;;;;;;15.50;10.40;;;0.10;99.90;;;;;;5106182;28;20459;-72
2021/01/26 05:12:40;;;;;;;17.60;10.90;;;0.10;99.90;;;;;;5115992;28;20503;-72
2021/01/26 05:15:13;;;;;;;12.70;9.43;;;0.00;99.90;;;;;;5082848;28;20555;-73
2021/01/26 05:17:56;;;;;;;16.87;10.93;;;0.10;99.90;;;;;;5101966;28;20479;-73
2021/01/26 05:20:28;;;;;;;17.90;11.73;;;0.00;99.90;;;;;;5105478;28;20460;-72
2021/01/26 05:23:04;;;;;;;17.97;11.43;;;0.00;99.90;;;;;;5107587;28;20494;-72
2021/01/26 05:25:32;;;;;;;20.70;12.20;;;0.00;99.90;;;;;;5111135;28;20448;-73
2021/01/26 05:27:59;;;;;;;13.63;10.70;;;0.00;99.90;;;;;;5110347;28;20531;-73
2021/01/26 05:30:33;;;;;;;15.77;10.40;;;0.00;99.90;;;;;;5110425;28;20444;-73
2021/01/26 05:33:07;;;;;;;15.70;10.67;;;0.10;99.90;;;;;;5109853;28;20475;-72
2021/01/26 05:35:36;;;;;;;22.17;13.40;;;0.10;99.90;;;;;;5110069;28;20479;-72
2021/01/26 05:38:04;;;;;;;17.57;12.47;;;0.10;99.90;;;;;;5109068;28;20462;-72
2021/01/26 05:40:34;;;;;;;16.27;10.20;;;0.00;99.90;;;;;;5091830;28;20503;-73
2021/01/26 05:43:04;;;;;;;23.60;13.97;;;0.00;99.90;;;;;;5109763;28;20495;-72
2021/01/26 05:45:39;;;;;;;17.00;11.50;;;0.00;99.90;;;;;;5109953;28;20464;-72
2021/01/26 05:48:11;;;;;;;15.97;10.60;;;0.00;99.90;;;;;;5110097;28;20484;-72
2021/01/26 05:50:41;;;;;;;21.87;10.93;;;0.00;99.90;;;;;;5109889;28;20976;-72
2021/01/26 05:53:18;;;;;;;18.43;11.30;;;-0.10;99.90;;;;;;5108133;28;20449;-72
2021/01/26 05:55:57;;;;;;;16.20;11.33;;;-0.10;99.90;;;;;;5093860;28;20475;-71
2021/01/26 05:58:29;;;;;;;16.13;11.80;;;0.00;99.90;;;;;;5091936;28;20484;-73
2021/01/26 06:00:58;;;;;;;18.40;12.40;;;-0.10;99.90;;;;;;5091838;28;20475;-73
2021/01/26 06:03:29;;;;;;;20.13;12.50;;;-0.10;99.90;;;;;;5087789;28;20488;-74
2021/01/26 06:06:02;;;;;;;19.83;12.00;;;0.00;99.90;;;;;;5089650;28;20456;-72
2021/01/26 06:08:30;;;;;;;22.33;11.97;;;0.00;99.90;;;;;;5089458;28;20463;-72
2021/01/26 06:10:58;;;;;;;17.63;11.40;;;0.10;99.90;;;;;;5093843;28;20509;-72
2021/01/26 06:13:28;;;;;;;16.27;11.43;;;0.10;99.90;;;;;;5092466;28;20469;-72
2021/01/26 06:16:10;;;;;;;19.20;10.73;;;0.10;99.90;;;;;;5096327;28;20456;-72
2021/01/26 06:18:39;;;;;;;18.20;11.70;;;0.10;99.90;;;;;;5110441;28;20463;-72
2021/01/26 06:21:11;;;;;;;18.60;11.70;;;0.10;99.90;;;;;;5110836;28;20503;-72
2021/01/26 06:23:41;;;;;;;17.90;10.70;;;0.10;99.90;;;;;;5110648;28;20507;-72
2021/01/26 06:26:12;;;;;;;18.27;11.23;;;0.10;99.90;;;;;;5109618;28;20459;-72
2021/01/26 06:29:15;;;;;;;19.57;10.90;;;0.10;99.90;;;;;;5090994;28;20455;-73
2021/01/26 06:32:02;;;;;;;16.60;9.80;;;0.20;99.90;;;;;;5109375;28;20485;-73
2021/01/26 06:35:06;;;;;;;15.97;10.00;;;0.20;99.90;;;;;;5108430;28;20452;-72
2021/01/26 06:37:58;;;;;;;15.70;9.73;;;0.20;99.90;;;;;;5067684;28;20504;-74
2021/01/26 06:40:48;;;;;;;17.80;10.90;;;0.20;99.90;;;;;;5109394;28;20456;-72
2021/01/26 06:43:30;;;;;;;11.00;8.90;;;0.20;99.90;;;;;;5109141;28;20597;-72
2021/01/26 06:46:05;;;;;;;16.10;11.10;;;0.30;99.90;;;;;;5089470;28;20468;-72
2021/01/26 06:48:46;;;;;;;19.33;12.50;;;0.30;99.90;;;;;;5108928;28;20971;-73
2021/01/26 06:51:29;;;;;;;17.70;10.40;;;0.30;99.90;;;;;;5107584;28;20974;-73
2021/01/26 06:54:07;;;;;;;17.90;9.40;;;0.30;99.90;;;;;;5108579;28;20497;-73
2021/01/26 06:57:07;;;;;;;17.57;11.20;;;0.30;99.90;;;;;;5090416;28;20459;-73
2021/01/26 07:00:23;;;;;;;16.63;10.23;;;0.40;99.90;;;;;;5109423;28;20479;-73
2021/01/26 07:03:18;;;;;;;17.07;9.77;;;0.40;99.90;;;;;;5025778;28;20565;-73
2021/01/26 07:06:14;;;;;;;12.67;8.23;;;0.40;99.90;;;;;;5110073;28;20444;-73
2021/01/26 07:09:02;;;;;;;12.50;7.97;;;0.50;99.90;;;;;;5117619;28;20513;-73
2021/01/26 07:12:18;;;;;;;13.83;9.17;;;0.50;99.90;;;;;;5100755;28;21168;-73
2021/01/26 07:15:10;;;;;;;15.97;10.40;;;0.50;99.90;;;;;;5109650;28;20474;-73
2021/01/26 07:17:51;;;;;;;15.07;9.67;;;0.50;99.90;;;;;;5108083;28;20472;-74
2021/01/26 07:20:31;;;;;;;17.77;9.63;;;0.50;99.90;;;;;;5107222;28;20542;-73
2021/01/26 07:23:23;;;;;;;21.20;10.83;;;0.60;99.90;;;;;;5090152;28;20907;-74
2021/01/26 07:26:25;;;;;;;15.63;9.90;;;0.60;99.90;;;;;;5108302;28;20463;-74
2021/01/26 07:29:17;;;;;;;17.20;11.93;;;0.60;99.90;;;;;;5072132;28;20437;-72
2021/01/26 07:31:50;;;;;;;14.60;9.47;;;0.70;99.90;;;;;;5107929;28;20283;-73
2021/01/26 07:34:25;;;;;;;12.93;9.40;;;0.80;99.90;;;;;;5109000;28;20464;-73
2021/01/26 07:37:01;;;;;;;14.13;10.40;;;0.80;99.90;;;;;;5090891;28;20471;-72
2021/01/26 07:39:39;;;;;;;14.70;8.40;;;0.90;99.90;;;;;;5093869;28;20817;-73
2021/01/26 07:42:14;;;;;;;13.43;8.27;;;1.00;99.90;;;;;;5116458;28;20451;-73
2021/01/26 07:44:46;;;;;;;14.80;9.00;;;1.10;99.90;;;;;;5096932;28;20528;-73
2021/01/26 07:47:19;;;;;;;11.97;9.00;;;1.30;99.90;;;;;;5108197;28;20506;-73
2021/01/26 07:49:54;;;;;;;14.53;8.70;;;1.40;99.90;;;;;;5108627;28;20448;-74
2021/01/26 07:52:23;;;;;;;16.40;10.60;;;1.30;99.90;;;;;;5090109;28;20366;-73
2021/01/26 07:54:59;;;;;;;11.33;8.50;;;1.20;99.90;;;;;;5089507;28;20472;-73
2021/01/26 07:57:34;;;;;;;13.00;8.10;;;1.10;99.90;;;;;;5089276;28;20454;-73
2021/01/26 08:00:05;;;;;;;15.87;8.37;;;1.00;99.90;;;;;;5108370;28;20451;-73
2021/01/26 08:02:39;;;;;;;13.30;9.67;;;1.00;99.90;;;;;;5086964;28;20547;-73
2021/01/26 08:05:11;;;;;;;11.90;7.40;;;1.00;99.90;;;;;;5087550;28;20529;-73
2021/01/26 08:07:40;;;;;;;12.60;7.13;;;1.00;99.90;;;;;;5087030;28;20449;-73
2021/01/26 08:10:25;;;;;;;16.47;8.83;;;1.00;99.90;;;;;;5087085;28;20460;-73
2021/01/26 08:12:54;;;;;;;;;;;1.00;99.90;;;;;;5087912;28;20469;-74
2021/01/26 08:15:31;;;;;;;9.83;7.33;;;1.10;99.90;;;;;;5086871;28;20840;-73
2021/01/26 08:18:16;;;;;;;13.30;9.63;;;1.00;99.90;;;;;;5086800;28;20465;-73
2021/01/26 08:20:44;;;;;;;13.47;8.20;;;1.10;99.90;;;;;;5086842;28;20465;-73
2021/01/26 08:23:32;;;;;;;10.37;7.50;;;1.10;99.90;;;;;;5085778;28;20884;-74
2021/01/26 08:26:15;;;;;;;14.97;8.70;;;1.10;99.90;;;;;;5084700;28;20468;-74
2021/01/26 08:28:46;;;;;;;10.00;7.07;;;1.20;99.90;;;;;;5086418;28;20591;-74
2021/01/26 08:31:30;;;;;;;11.47;7.97;;;1.20;99.90;;;;;;5067829;28;20472;-74
2021/01/26 08:37:27;;;;;;;11.60;7.50;;;1.30;99.90;;;;;;5087004;28;20479;-73
2021/01/26 08:39:57;;;;;;;11.47;7.60;;;1.40;99.90;;;;;;5086050;28;21008;-73
2021/01/26 08:42:59;;;;;;;17.10;8.53;;;1.40;99.90;;;;;;5087010;28;20452;-73
2021/01/26 08:45:54;;;;;;;9.00;7.80;;;1.40;99.90;;;;;;5079027;28;20468;-74
2021/01/26 08:48:28;;;;;;;9.90;7.70;;;1.50;99.90;;;;;;5095323;28;20490;-73
2021/01/26 08:51:06;;;;;;;10.63;7.97;;;1.50;99.90;;;;;;5095295;28;20507;-73
2021/01/26 08:53:38;;;;;;;10.73;7.60;;;1.50;99.90;;;;;;5100313;28;20502;-73
2021/01/26 08:56:40;;;;;;;13.07;8.00;;;1.50;99.90;;;;;;5096919;28;20517;-73
2021/01/26 08:59:13;;;;;;;9.80;6.60;;;1.50;99.90;;;;;;5098240;28;20464;-73
2021/01/26 09:01:46;;;;;;;11.00;7.70;;;1.50;99.90;;;;;;5093321;28;20556;-73
2021/01/26 09:04:40;;;;;;;11.40;6.90;;;1.50;99.90;;;;;;5112394;28;20479;-73
2021/01/26 09:07:09;;;;;;;10.10;6.50;;;1.50;99.90;;;;;;5111372;28;20459;-73
2021/01/26 09:09:52;;;;;;;14.57;8.13;;;1.40;99.90;;;;;;5092762;28;20871;-74
2021/01/26 09:12:23;;;;;;;11.23;6.67;;;1.40;99.90;;;;;;5110877;28;20478;-75
2021/01/26 09:15:01;;;;;;;12.43;8.80;;;1.30;99.90;;;;;;5109625;28;20458;-73
2021/01/26 09:17:32;;;;;;;11.83;7.87;;;1.30;99.90;;;;;;5070562;28;20502;-74
2021/01/26 09:20:09;;;;;;;11.73;7.30;;;1.40;99.90;;;;;;5071595;28;20452;-73
2021/01/26 09:22:36;;;;;;;8.33;7.07;;;1.50;99.90;;;;;;5089822;28;20480;-73
2021/01/26 09:25:12;;;;;;;8.10;6.47;;;1.50;99.90;;;;;;5054730;28;20549;-74
2021/01/26 09:27:39;;;;;;;11.07;6.20;;;1.60;99.90;;;;;;5090514;28;20456;-72
2021/01/26 09:30:17;;;;;;;8.53;6.10;;;1.60;99.90;;;;;;5071435;28;20440;-73
2021/01/26 09:32:49;;;;;;;8.70;7.00;;;1.70;99.90;;;;;;5075791;28;20508;-71
2021/01/26 09:35:28;;;;;;;10.47;5.83;;;1.60;99.90;;;;;;5112314;28;20460;-71
2021/01/26 09:38:06;;;;;;;6.53;5.90;;;1.60;99.90;;;;;;5112927;28;20950;-73
2021/01/26 09:40:35;;;;;;;5.70;5.13;;;1.60;99.90;;;;;;5119059;28;20462;-71
2021/01/26 09:43:16;;;;;;;8.53;6.20;;;1.60;99.90;;;;;;5116251;28;20479;-73
2021/01/26 09:45:44;;;;;;;6.97;5.90;;;1.70;99.90;;;;;;5081506;28;20460;-73
2021/01/26 09:48:24;;;;;;;6.27;5.30;;;1.70;99.90;;;;;;5115763;28;20460;-73
2021/01/26 09:50:52;;;;;;;7.53;6.37;;;1.70;99.90;;;;;;5108752;28;20455;-74
2021/01/26 09:53:23;;;;;;;8.30;4.43;;;1.80;99.90;;;;;;5108550;28;20456;-73
2021/01/26 09:55:54;;;;;;;6.40;5.20;;;1.90;99.90;;;;;;5109287;28;20470;-74
2021/01/26 09:58:22;;;;;;;6.00;5.37;;;2.10;99.90;;;;;;5109645;28;20563;-73
2021/01/26 10:00:51;;;;;;;6.77;5.40;;;2.10;99.90;;;;;;5090142;28;20475;-73
2021/01/26 10:03:23;;;;;;;8.07;4.53;;;2.10;99.90;;;;;;5108512;28;20495;-74
2021/01/26 10:05:53;;;;;;;7.90;5.33;;;2.10;99.90;;;;;;5110053;28;20467;-74
2021/01/26 10:08:27;;;;;;;5.20;4.57;;;2.20;99.90;;;;;;5110263;28;20946;-74
2021/01/26 10:10:55;;;;;;;15.43;5.97;;;2.10;99.90;;;;;;5108550;28;20568;-74
2021/01/26 10:13:31;;;;;;;6.30;5.40;;;2.20;99.90;;;;;;5110330;28;20490;-73
2021/01/26 10:16:31;;;;;;;7.30;5.27;;;2.20;99.90;;;;;;5111061;28;20732;-74
2021/01/26 10:19:08;;;;;;;12.73;5.03;;;2.30;99.90;;;;;;5110786;28;20504;-74
2021/01/26 10:21:35;;;;;;;6.90;5.53;;;2.30;99.90;;;;;;5109657;28;20462;-74
2021/01/26 10:24:06;;;;;;;6.20;4.67;;;2.20;99.90;;;;;;5108776;28;20508;-74
2021/01/26 10:26:39;;;;;;;8.23;7.27;;;2.20;99.90;;;;;;5110744;28;20516;-75
2021/01/26 10:29:33;;;;;;;6.93;5.50;;;2.20;99.90;;;;;;5110557;28;21028;-74
2021/01/26 10:32:02;;;;;;;6.50;4.47;;;2.20;99.90;;;;;;5090445;28;20873;-74
2021/01/26 10:34:38;;;;;;;10.50;5.60;;;2.20;99.90;;;;;;5110154;28;20495;-75
2021/01/26 10:37:17;;;;;;;6.53;5.33;;;2.30;99.90;;;;;;5091644;28;20477;-75
2021/01/26 10:39:45;;;;;;;7.50;5.40;;;2.20;99.90;;;;;;5109910;28;20478;-74
2021/01/26 10:42:39;;;;;;;6.43;4.73;;;2.20;99.90;;;;;;5108821;28;20460;-73
2021/01/26 10:45:08;;;;;;;4.63;4.20;;;2.30;99.90;;;;;;5090207;28;20506;-73
2021/01/26 10:47:39;;;;;;;7.70;5.00;;;2.30;99.90;;;;;;5088382;28;20476;-74
2021/01/26 10:50:10;;;;;;;8.20;5.43;;;2.30;99.90;;;;;;5070387;28;20460;-73
2021/01/26 10:52:41;;;;;;;7.90;5.30;;;2.20;99.90;;;;;;5070456;28;20555;-73
2021/01/26 10:55:13;;;;;;;7.23;6.60;;;2.10;99.90;;;;;;5088210;28;21051;-74
2021/01/26 10:57:41;;;;;;;8.30;5.93;;;2.10;99.90;;;;;;5089265;28;20545;-73
2021/01/26 11:00:12;;;;;;;9.70;5.40;;;2.10;99.90;;;;;;5071264;28;20576;-73
2021/01/26 11:02:42;;;;;;;5.60;5.10;;;2.00;99.90;;;;;;5108495;28;21051;-75
2021/01/26 11:05:12;;;;;;;7.53;5.50;;;1.90;99.90;;;;;;5075202;28;20483;-74
2021/01/26 11:07:40;;;;;;;6.57;5.53;;;1.90;99.90;;;;;;5110079;28;20731;-75
2021/01/26 11:10:10;;;;;;;7.73;5.43;;;2.00;99.90;;;;;;5109524;28;20460;-74
2021/01/26 11:12:39;;;;;;;11.00;6.83;;;2.00;99.90;;;;;;5109693;28;20513;-74
2021/01/26 11:15:09;;;;;;;7.20;6.00;;;2.00;99.90;;;;;;5109223;28;20847;-75
2021/01/26 11:17:38;;;;;;;8.70;4.97;;;2.10;99.90;;;;;;5089303;28;20463;-76
2021/01/26 11:20:07;;;;;;;10.13;6.37;;;2.10;99.90;;;;;;5108761;28;20872;-74
2021/01/26 11:22:36;;;;;;;5.53;4.43;;;2.10;99.90;;;;;;5089843;28;20560;-75
2021/01/26 11:25:08;;;;;;;5.43;4.90;;;2.10;99.90;;;;;;5108030;28;20571;-74
2021/01/26 11:27:36;;;;;;;5.37;4.17;;;2.10;99.90;;;;;;5107245;28;20469;-77
2021/01/26 11:30:07;;;;;;;17.57;5.67;;;2.10;99.90;;;;;;5089744;28;20455;-73
2021/01/26 11:32:38;;;;;;;9.13;5.63;;;2.20;99.90;;;;;;5106975;28;20487;-74
2021/01/26 11:35:11;;;;;;;6.43;5.10;;;2.20;99.90;;;;;;5105772;28;20455;-74
2021/01/26 11:37:39;;;;;;;5.80;5.20;;;2.20;99.90;;;;;;5088597;28;20455;-75
2021/01/26 11:40:08;;;;;;;9.70;5.67;;;2.10;99.90;;;;;;5088499;28;20456;-75
2021/01/26 11:42:37;;;;;;;7.87;6.50;;;2.20;99.90;;;;;;5107438;28;20528;-75
2021/01/26 11:45:09;;;;;;;5.87;4.23;;;2.20;99.90;;;;;;5105731;28;20486;-74
2021/01/26 11:47:36;;;;;;;13.40;6.07;;;2.30;99.90;;;;;;5084176;28;20476;-74
2021/01/26 11:50:08;;;;;;;6.30;5.70;;;2.30;99.90;;;;;;5084828;28;20478;-75
2021/01/26 11:52:37;;;;;;;8.57;5.30;;;2.30;99.90;;;;;;5086231;28;20449;-74
2021/01/26 11:55:09;;;;;;;7.33;4.90;;;2.30;99.90;;;;;;5086061;28;21029;-75
2021/01/26 11:57:38;;;;;;;7.20;4.40;;;2.30;99.90;;;;;;5083763;28;20548;-74
2021/01/26 12:00:09;;;;;;;5.23;4.73;;;2.20;99.90;;;;;;5067423;28;20508;-74
2021/01/26 12:02:39;;;;;;;7.23;4.50;;;2.20;99.90;;;;;;5083400;28;20484;-74
2021/01/26 12:05:08;;;;;;;7.50;5.00;;;2.20;99.90;;;;;;5086421;28;20486;-74
2021/01/26 12:07:37;;;;;;;5.10;4.47;;;2.20;99.90;;;;;;5084738;28;20461;-74
2021/01/26 12:10:06;;;;;;;7.10;4.87;;;2.10;99.90;;;;;;5084189;28;20471;-74
2021/01/26 12:12:36;;;;;;;9.63;4.73;;;2.10;99.90;;;;;;5085369;28;20479;-74
2021/01/26 12:15:06;;;;;;;4.57;4.07;;;2.00;99.90;;;;;;5084485;28;20543;-74
2021/01/26 12:17:35;;;;;;;6.83;4.73;;;2.00;99.90;;;;;;5066581;28;20487;-74
2021/01/26 12:20:05;;;;;;;6.40;4.90;;;2.00;99.90;;;;;;5067233;28;20465;-73
2021/01/26 12:22:32;;;;;;;15.40;5.00;;;2.00;99.90;;;;;;5073732;28;20582;-73
2021/01/26 12:25:07;;;;;;;5.63;5.13;;;2.00;99.90;;;;;;5085933;28;20579;-74
2021/01/26 12:27:36;;;;;;;6.13;4.90;;;1.90;99.90;;;;;;5086345;28;20460;-74
2021/01/26 12:30:05;;;;;;;6.53;5.60;;;2.00;99.90;;;;;;5086129;28;20479;-74
2021/01/26 12:32:33;;;;;;;6.47;5.20;;;1.90;99.90;;;;;;5083316;28;20469;-74
2021/01/26 12:35:01;;;;;;;6.53;5.10;;;1.90;99.90;;;;;;5084825;28;20545;-74
2021/01/26 12:37:29;;;;;;;5.63;4.40;;;1.90;99.90;;;;;;5085806;28;21041;-73
2021/01/26 12:39:57;;;;;;;7.70;4.80;;;1.90;99.90;;;;;;5086580;28;20457;-73
2021/01/26 12:42:26;;;;;;;5.40;4.10;;;2.10;99.90;;;;;;5087120;28;20565;-73
2021/01/26 12:44:54;;;;;;;5.33;4.33;;;2.10;99.90;;;;;;5085709;28;20605;-73
2021/01/26 12:47:24;;;;;;;6.00;4.87;;;2.20;99.90;;;;;;5087921;28;21137;-74
2021/01/26 12:49:52;;;;;;;7.40;4.70;;;2.10;99.90;;;;;;5076361;28;20472;-73
2021/01/26 12:52:20;;;;;;;6.90;4.97;;;2.10;99.90;;;;;;5059646;28;20453;-74
2021/01/26 12:54:48;;;;;;;6.93;4.20;;;2.00;99.90;;;;;;5088788;28;20464;-73
2021/01/26 12:57:16;;;;;;;7.63;4.07;;;2.00;99.90;;;;;;5068775;28;20471;-74
2021/01/26 12:59:45;;;;;;;9.07;4.17;;;2.00;99.90;;;;;;5068618;28;20983;-73
2021/01/26 13:02:12;;;;;;;6.30;4.50;;;2.00;99.90;;;;;;5101869;28;20505;-74
2021/01/26 13:04:40;;;;;;;7.93;4.63;;;2.00;99.90;;;;;;5088138;28;20589;-73
2021/01/26 13:07:09;;;;;;;7.60;4.23;;;2.00;99.90;;;;;;5088939;28;20463;-74
2021/01/26 13:09:36;;;;;;;5.77;4.30;;;2.10;99.90;;;;;;5089339;28;20879;-74
2021/01/26 13:12:05;;;;;;;7.03;4.67;;;2.10;99.90;;;;;;5088606;28;20485;-73
2021/01/26 13:14:33;;;;;;;7.67;4.63;;;2.10;99.90;;;;;;5106936;28;20550;-73
2021/01/26 13:17:02;;;;;;;5.83;4.70;;;2.10;99.90;;;;;;5088048;28;20994;-74
2021/01/26 13:19:30;;;;;;;6.00;5.33;;;2.10;99.90;;;;;;5088701;28;20494;-74
2021/01/26 13:21:58;;;;;;;6.50;4.60;;;2.10;99.90;;;;;;5089287;28;20490;-74
2021/01/26 13:24:25;;;;;;;7.30;4.50;;;2.10;99.90;;;;;;5071357;28;21705;-75
2021/01/26 13:26:53;;;;;;;6.43;4.30;;;2.10;99.90;;;;;;5088428;28;20463;-73
2021/01/26 13:29:21;;;;;;;5.07;4.00;;;2.00;99.90;;;;;;5089257;28;20516;-73
2021/01/26 13:31:48;;;;;;;4.80;4.30;;;2.10;99.90;;;;;;5106113;28;20550;-73